sensor_id;sensor_type;location;lat;lon;timestamp;pressure;altitude;pressure_sealevel;temperature;humidity
59240;BME280;45010;53.640;10.578;2023-01-28T00:01:38;102215.75;;;25.48;30.88
59240;BME280;45010;53.640;10.578;2023-01-28T00:04:38;102221.09;;;25.48;30.99
59240;BME280;45010;53.640;10.578;2023-01-28T00:07:39;102224.59;;;25.48;30.93
59240;BME280;45010;53.640;10.578;2023-01-28T00:10:40;102228.09;;;25.49;31.20
59240;BME280;45010;53.640;10.578;2023-01-28T00:13:42;102200.91;;;25.32;31.16
59240;BME280;45010;53.640;10.578;2023-01-28T00:16:42;102234.66;;;25.39;31.17
59240;BME280;45010;53.640;10.578;2023-01-28T00:19:43;102233.81;;;25.39;30.97
59240;BME280;45010;53.640;10.578;2023-01-28T00:22:47;102241.22;;;25.44;31.04
59240;BME280;45010;53.640;10.578;2023-01-28T00:25:47;102243.88;;;25.44;31.22
59240;BME280;45010;53.640;10.578;2023-01-28T00:28:48;102251.91;;;25.44;31.25
59240;BME280;45010;53.640;10.578;2023-01-28T00:31:48;102247.59;;;25.43;30.97
59240;BME280;45010;53.640;10.578;2023-01-28T00:34:48;102240.41;;;25.43;31.17
59240;BME280;45010;53.640;10.578;2023-01-28T00:37:49;102245.75;;;25.43;31.04
59240;BME280;45010;53.640;10.578;2023-01-28T00:40:49;102237.94;;;25.42;31.25
59240;BME280;45010;53.640;10.578;2023-01-28T00:43:50;102235.25;;;25.42;31.27
59240;BME280;45010;53.640;10.578;2023-01-28T00:46:51;102236.28;;;25.41;31.19
59240;BME280;45010;53.640;10.578;2023-01-28T00:49:51;102235.25;;;25.42;31.34
59240;BME280;45010;53.640;10.578;2023-01-28T00:52:51;102233.41;;;25.42;31.15
59240;BME280;45010;53.640;10.578;2023-01-28T00:55:52;102232.59;;;25.42;31.12
59240;BME280;45010;53.640;10.578;2023-01-28T00:58:53;102234.22;;;25.43;30.91
59240;BME280;45010;53.640;10.578;2023-01-28T01:01:53;102229.91;;;25.42;31.10
59240;BME280;45010;53.640;10.578;2023-01-28T01:05:01;102236.91;;;25.43;30.92
59240;BME280;45010;53.640;10.578;2023-01-28T01:08:01;102233.41;;;25.42;31.19
59240;BME280;45010;53.640;10.578;2023-01-28T01:11:03;102227.06;;;25.43;31.24
59240;BME280;45010;53.640;10.578;2023-01-28T01:14:04;102228.88;;;25.43;30.97
59240;BME280;45010;53.640;10.578;2023-01-28T01:17:06;102223.97;;;25.39;30.90
59240;BME280;45010;53.640;10.578;2023-01-28T01:20:10;102221.06;;;25.34;30.91
59240;BME280;45010;53.640;10.578;2023-01-28T01:23:11;102229.31;;;25.39;31.05
59240;BME280;45010;53.640;10.578;2023-01-28T01:26:12;102220.63;;;25.31;30.94
59240;BME280;45010;53.640;10.578;2023-01-28T01:29:13;102216.53;;;25.28;30.81
59240;BME280;45010;53.640;10.578;2023-01-28T01:32:13;102231.13;;;25.32;30.82
59240;BME280;45010;53.640;10.578;2023-01-28T01:35:13;102228.84;;;25.29;30.75
59240;BME280;45010;53.640;10.578;2023-01-28T01:38:14;102229.25;;;25.26;30.95
59240;BME280;45010;53.640;10.578;2023-01-28T01:41:29;102225.94;;;25.24;30.90
59240;BME280;45010;53.640;10.578;2023-01-28T01:45:11;102233.72;;;25.19;30.86
59240;BME280;45010;53.640;10.578;2023-01-28T01:48:20;102235.78;;;25.17;30.89
59240;BME280;45010;53.640;10.578;2023-01-28T01:51:27;102227.94;;;25.08;30.88
59240;BME280;45010;53.640;10.578;2023-01-28T01:54:32;102227.53;;;25.11;30.88
59240;BME280;45010;53.640;10.578;2023-01-28T01:57:35;102222.38;;;25.03;30.91
59240;BME280;45010;53.640;10.578;2023-01-28T02:00:36;102238.16;;;25.05;30.90
59240;BME280;45010;53.640;10.578;2023-01-28T02:06:45;102220.88;;;24.94;31.02
59240;BME280;45010;53.640;10.578;2023-01-28T02:09:46;102223.34;;;24.95;31.13
59240;BME280;45010;53.640;10.578;2023-01-28T02:12:49;102209.72;;;24.83;31.18
59240;BME280;45010;53.640;10.578;2023-01-28T02:15:52;102216.94;;;24.90;30.92
59240;BME280;45010;53.640;10.578;2023-01-28T02:18:53;102221.66;;;24.88;30.98
59240;BME280;45010;53.640;10.578;2023-01-28T02:22:09;102221.03;;;24.85;31.12
59240;BME280;45010;53.640;10.578;2023-01-28T02:26:07;102217.09;;;24.81;31.04
59240;BME280;45010;53.640;10.578;2023-01-28T02:29:16;102216.44;;;24.79;31.13
59240;BME280;45010;53.640;10.578;2023-01-28T02:32:26;102213.13;;;24.77;30.94
59240;BME280;45010;53.640;10.578;2023-01-28T02:35:34;102207.59;;;24.72;31.37
59240;BME280;45010;53.640;10.578;2023-01-28T02:38:41;102202.63;;;24.69;31.00
59240;BME280;45010;53.640;10.578;2023-01-28T02:41:50;102210.00;;;24.67;31.13
59240;BME280;45010;53.640;10.578;2023-01-28T02:44:52;102205.84;;;24.57;31.19
59240;BME280;45010;53.640;10.578;2023-01-28T02:47:52;102209.16;;;24.60;31.22
59240;BME280;45010;53.640;10.578;2023-01-28T02:51:09;102216.50;;;24.57;31.32
59240;BME280;45010;53.640;10.578;2023-01-28T02:57:53;102214.59;;;24.51;31.41
59240;BME280;45010;53.640;10.578;2023-01-28T03:01:15;102207.00;;;24.48;31.35
59240;BME280;45010;53.640;10.578;2023-01-28T03:05:33;102211.06;;;24.44;31.44
59240;BME280;45010;53.640;10.578;2023-01-28T03:08:13;102206.13;;;24.41;31.39
59240;BME280;45010;53.640;10.578;2023-01-28T03:11:35;102206.53;;;24.38;31.50
59240;BME280;45010;53.640;10.578;2023-01-28T03:15:03;102206.88;;;24.35;31.77
59240;BME280;45010;53.640;10.578;2023-01-28T03:18:31;102190.78;;;24.21;31.35
59240;BME280;45010;53.640;10.578;2023-01-28T03:21:51;102212.00;;;24.29;31.59
59240;BME280;45010;53.640;10.578;2023-01-28T03:25:10;102192.41;;;24.15;31.68
59240;BME280;45010;53.640;10.578;2023-01-28T03:28:32;102198.78;;;24.21;31.59
59240;BME280;45010;53.640;10.578;2023-01-28T03:31:55;102168.06;;;24.03;31.63
59240;BME280;45010;53.640;10.578;2023-01-28T03:35:17;102187.88;;;24.16;31.85
59240;BME280;45010;53.640;10.578;2023-01-28T03:38:42;102193.59;;;24.13;31.72
59240;BME280;45010;53.640;10.578;2023-01-28T03:41:55;102188.63;;;24.10;31.63
59240;BME280;45010;53.640;10.578;2023-01-28T03:44:56;102192.50;;;24.07;31.66
59240;BME280;45010;53.640;10.578;2023-01-28T03:47:57;102204.16;;;24.06;31.67
59240;BME280;45010;53.640;10.578;2023-01-28T03:50:57;102202.53;;;24.05;31.95
59240;BME280;45010;53.640;10.578;2023-01-28T03:54:00;102200.03;;;24.03;31.63
59240;BME280;45010;53.640;10.578;2023-01-28T03:57:01;102200.44;;;24.00;31.91
59240;BME280;45010;53.640;10.578;2023-01-28T04:00:01;102205.75;;;24.00;31.95
59240;BME280;45010;53.640;10.578;2023-01-28T04:03:05;102188.63;;;23.88;31.87
59240;BME280;45010;53.640;10.578;2023-01-28T04:06:14;102202.84;;;23.95;31.41
59240;BME280;45010;53.640;10.578;2023-01-28T04:09:15;102209.19;;;23.94;31.86
59240;BME280;45010;53.640;10.578;2023-01-28T04:12:15;102208.53;;;23.92;31.79
59240;BME280;45010;53.640;10.578;2023-01-28T04:15:15;102213.88;;;23.92;31.58
59240;BME280;45010;53.640;10.578;2023-01-28T04:18:16;102211.59;;;23.89;32.07
59240;BME280;45010;53.640;10.578;2023-01-28T04:21:16;102214.25;;;23.89;32.13
59240;BME280;45010;53.640;10.578;2023-01-28T04:24:16;102215.47;;;23.86;32.02
59240;BME280;45010;53.640;10.578;2023-01-28T04:27:17;102215.47;;;23.86;32.23
59240;BME280;45010;53.640;10.578;2023-01-28T04:30:17;102192.44;;;23.78;32.24
59240;BME280;45010;53.640;10.578;2023-01-28T04:33:18;102199.03;;;23.83;32.29
59240;BME280;45010;53.640;10.578;2023-01-28T04:36:18;102201.88;;;23.81;32.11
59240;BME280;45010;53.640;10.578;2023-01-28T04:39:18;102206.38;;;23.81;32.16
59240;BME280;45010;53.640;10.578;2023-01-28T04:42:19;102197.66;;;23.72;32.07
59240;BME280;45010;53.640;10.578;2023-01-28T04:45:19;102207.59;;;23.78;32.31
59240;BME280;45010;53.640;10.578;2023-01-28T04:48:19;102202.47;;;23.76;32.25
59240;BME280;45010;53.640;10.578;2023-01-28T04:51:20;102203.47;;;23.75;32.15
59240;BME280;45010;53.640;10.578;2023-01-28T04:54:20;102206.31;;;23.74;32.48
59240;BME280;45010;53.640;10.578;2023-01-28T04:57:20;102203.00;;;23.72;32.27
59240;BME280;45010;53.640;10.578;2023-01-28T05:00:21;102208.53;;;23.70;32.51
59240;BME280;45010;53.640;10.578;2023-01-28T05:03:22;102204.97;;;23.63;32.27
59240;BME280;45010;53.640;10.578;2023-01-28T05:06:23;102207.88;;;23.68;32.43
59240;BME280;45010;53.640;10.578;2023-01-28T05:09:23;102186.44;;;23.55;32.39
59240;BME280;45010;53.640;10.578;2023-01-28T05:12:23;102203.97;;;23.64;32.67
59240;BME280;45010;53.640;10.578;2023-01-28T05:15:24;102205.97;;;23.62;32.75
59240;BME280;45010;53.640;10.578;2023-01-28T05:18:24;102205.34;;;23.60;32.48
59240;BME280;45010;53.640;10.578;2023-01-28T05:21:25;102205.34;;;23.60;32.46
59240;BME280;45010;53.640;10.578;2023-01-28T05:24:25;102203.69;;;23.59;32.50
59240;BME280;45010;53.640;10.578;2023-01-28T05:27:26;102196.72;;;23.58;32.85
59240;BME280;45010;53.640;10.578;2023-01-28T05:30:26;102195.06;;;23.57;32.76
59240;BME280;45010;53.640;10.578;2023-01-28T05:33:26;102186.25;;;23.56;32.55
59240;BME280;45010;53.640;10.578;2023-01-28T05:36:27;102190.75;;;23.56;32.65
59240;BME280;45010;53.640;10.578;2023-01-28T05:39:27;102178.63;;;23.53;32.56
59240;BME280;45010;53.640;10.578;2023-01-28T05:42:27;102170.00;;;23.51;32.60
59240;BME280;45010;53.640;10.578;2023-01-28T05:45:28;102174.50;;;23.50;32.44
59240;BME280;45010;53.640;10.578;2023-01-28T05:48:28;102169.19;;;23.50;32.72
59240;BME280;45010;53.640;10.578;2023-01-28T05:51:28;102171.22;;;23.48;32.95
59240;BME280;45010;53.640;10.578;2023-01-28T05:54:29;102164.25;;;23.47;32.62
59240;BME280;45010;53.640;10.578;2023-01-28T05:57:29;102165.00;;;23.41;32.58
59240;BME280;45010;53.640;10.578;2023-01-28T06:00:29;102175.91;;;23.46;32.74
59240;BME280;45010;53.640;10.578;2023-01-28T06:03:30;102170.78;;;23.45;33.11
59240;BME280;45010;53.640;10.578;2023-01-28T06:06:30;102170.31;;;23.41;33.23
59240;BME280;45010;53.640;10.578;2023-01-28T06:09:30;102183.25;;;23.44;33.01
59240;BME280;45010;53.640;10.578;2023-01-28T06:12:31;102175.66;;;23.41;32.96
59240;BME280;45010;53.640;10.578;2023-01-28T06:15:31;102178.94;;;23.43;32.62
59240;BME280;45010;53.640;10.578;2023-01-28T06:18:32;102171.78;;;23.44;33.17
59240;BME280;45010;53.640;10.578;2023-01-28T06:21:32;102157.13;;;23.33;33.08
59240;BME280;45010;53.640;10.578;2023-01-28T06:24:32;102170.31;;;23.41;32.95
59240;BME280;45010;53.640;10.578;2023-01-28T06:27:33;102168.47;;;23.42;32.67
59240;BME280;45010;53.640;10.578;2023-01-28T06:30:33;102175.66;;;23.41;33.00
59240;BME280;45010;53.640;10.578;2023-01-28T06:33:33;102159.78;;;23.33;33.06
59240;BME280;45010;53.640;10.578;2023-01-28T06:36:34;102165.34;;;23.38;33.05
59240;BME280;45010;53.640;10.578;2023-01-28T06:39:35;102170.69;;;23.38;33.20
59240;BME280;45010;53.640;10.578;2023-01-28T06:42:35;102175.19;;;23.37;32.75
59240;BME280;45010;53.640;10.578;2023-01-28T06:45:35;102175.19;;;23.37;32.99
59240;BME280;45010;53.640;10.578;2023-01-28T06:48:38;102179.69;;;23.37;33.26
59240;BME280;45010;53.640;10.578;2023-01-28T06:51:38;102167.38;;;23.36;33.12
59240;BME280;45010;53.640;10.578;2023-01-28T06:54:39;102162.06;;;23.36;33.28
59240;BME280;45010;53.640;10.578;2023-01-28T06:57:40;102151.25;;;23.22;33.15
59240;BME280;45010;53.640;10.578;2023-01-28T07:00:40;102169.44;;;23.34;33.02
59240;BME280;45010;53.640;10.578;2023-01-28T07:03:41;102165.75;;;23.35;32.87
59240;BME280;45010;53.640;10.578;2023-01-28T07:06:42;102166.19;;;23.23;33.20
59240;BME280;45010;53.640;10.578;2023-01-28T07:09:42;102194.41;;;23.33;33.51
59240;BME280;45010;53.640;10.578;2023-01-28T07:12:42;102198.06;;;23.32;32.93
59240;BME280;45010;53.640;10.578;2023-01-28T07:15:43;102215.69;;;23.33;33.40
59240;BME280;45010;53.640;10.578;2023-01-28T07:18:43;102205.06;;;23.33;32.93
59240;BME280;45010;53.640;10.578;2023-01-28T07:21:43;102217.69;;;23.31;33.37
59240;BME280;45010;53.640;10.578;2023-01-28T07:24:44;102214.03;;;23.32;33.01
59240;BME280;45010;53.640;10.578;2023-01-28T07:27:48;102212.06;;;23.25;33.30
59240;BME280;45010;53.640;10.578;2023-01-28T07:30:50;102225.38;;;23.25;33.00
59240;BME280;45010;53.640;10.578;2023-01-28T07:33:50;102233.66;;;23.31;33.42
59240;BME280;45010;53.640;10.578;2023-01-28T07:36:50;102237.31;;;23.30;33.05
59240;BME280;45010;53.640;10.578;2023-01-28T07:39:50;102244.31;;;23.31;33.36
59240;BME280;45010;53.640;10.578;2023-01-28T07:42:51;102245.31;;;23.30;33.32
59240;BME280;45010;53.640;10.578;2023-01-28T07:45:52;102242.66;;;23.30;33.32
59240;BME280;45010;53.640;10.578;2023-01-28T07:48:53;102239.69;;;23.24;33.34
59240;BME280;45010;53.640;10.578;2023-01-28T07:51:53;102235.66;;;23.29;33.11
59240;BME280;45010;53.640;10.578;2023-01-28T07:54:53;102241.81;;;23.29;33.47
59240;BME280;45010;53.640;10.578;2023-01-28T07:57:56;102235.41;;;23.23;33.41
59240;BME280;45010;53.640;10.578;2023-01-28T08:00:57;102242.66;;;23.30;33.57
59240;BME280;45010;53.640;10.578;2023-01-28T08:03:58;102236.47;;;23.29;33.25
59240;BME280;45010;53.640;10.578;2023-01-28T08:06:58;102247.97;;;23.30;33.29
59240;BME280;45010;53.640;10.578;2023-01-28T08:09:58;102263.94;;;23.30;33.16
59240;BME280;45010;53.640;10.578;2023-01-28T08:12:59;102267.63;;;23.29;33.71
59240;BME280;45010;53.640;10.578;2023-01-28T08:15:59;102271.09;;;23.29;33.54
59240;BME280;45010;53.640;10.578;2023-01-28T08:18:59;102271.94;;;23.30;33.36
59240;BME280;45010;53.640;10.578;2023-01-28T08:22:00;102256.41;;;23.18;33.45
59240;BME280;45010;53.640;10.578;2023-01-28T08:25:00;102264.94;;;23.29;33.33
59240;BME280;45010;53.640;10.578;2023-01-28T08:28:01;102258.50;;;23.23;33.70
59240;BME280;45010;53.640;10.578;2023-01-28T08:31:02;102258.50;;;23.23;33.35
59240;BME280;45010;53.640;10.578;2023-01-28T08:34:02;102272.09;;;23.28;33.66
59240;BME280;45010;53.640;10.578;2023-01-28T08:37:03;102260.66;;;23.28;33.64
59240;BME280;45010;53.640;10.578;2023-01-28T08:40:05;102262.28;;;23.29;33.65
59240;BME280;45010;53.640;10.578;2023-01-28T08:43:05;102269.25;;;23.30;33.24
59240;BME280;45010;53.640;10.578;2023-01-28T08:46:06;102278.25;;;23.29;33.20
59240;BME280;45010;53.640;10.578;2023-01-28T08:49:06;102288.91;;;23.29;33.32
59240;BME280;45010;53.640;10.578;2023-01-28T08:52:07;102288.91;;;23.29;33.24
59240;BME280;45010;53.640;10.578;2023-01-28T08:55:07;102269.66;;;23.27;32.90
59240;BME280;45010;53.640;10.578;2023-01-28T08:58:13;102291.75;;;23.27;33.26
59240;BME280;45010;53.640;10.578;2023-01-28T09:01:14;102287.25;;;23.28;32.95
59240;BME280;45010;53.640;10.578;2023-01-28T09:04:14;102290.94;;;23.27;33.27
59240;BME280;45010;53.640;10.578;2023-01-28T09:07:15;102296.25;;;23.27;33.14
59240;BME280;45010;53.640;10.578;2023-01-28T09:10:15;102294.97;;;23.22;33.05
59240;BME280;45010;53.640;10.578;2023-01-28T09:13:16;102314.22;;;23.24;33.32
59240;BME280;45010;53.640;10.578;2023-01-28T09:16:17;102321.22;;;23.25;33.88
59240;BME280;45010;53.640;10.578;2023-01-28T09:19:17;102319.22;;;23.28;33.55
59240;BME280;45010;53.640;10.578;2023-01-28T09:22:17;102305.22;;;23.25;34.12
59240;BME280;45010;53.640;10.578;2023-01-28T09:25:18;102299.63;;;23.20;33.90
59240;BME280;45010;53.640;10.578;2023-01-28T09:28:18;102314.81;;;23.35;34.32
59240;BME280;45010;53.640;10.578;2023-01-28T09:31:18;102334.09;;;23.37;34.30
59240;BME280;45010;53.640;10.578;2023-01-28T09:34:19;102328.41;;;23.40;34.22
59240;BME280;45010;53.640;10.578;2023-01-28T09:37:19;102337.88;;;23.43;33.96
59240;BME280;45010;53.640;10.578;2023-01-28T09:40:35;102350.00;;;23.45;33.88
59240;BME280;45010;53.640;10.578;2023-01-28T09:43:42;102353.94;;;23.49;34.04
59240;BME280;45010;53.640;10.578;2023-01-28T09:46:47;102361.56;;;23.53;33.75
59240;BME280;45010;53.640;10.578;2023-01-28T09:49:50;102361.84;;;23.58;34.00
59240;BME280;45010;53.640;10.578;2023-01-28T09:52:53;102340.88;;;23.55;33.71
59240;BME280;45010;53.640;10.578;2023-01-28T09:56:01;102333.53;;;23.57;33.97
59240;BME280;45010;53.640;10.578;2023-01-28T09:59:18;102327.84;;;23.60;33.76
59240;BME280;45010;53.640;10.578;2023-01-28T10:02:25;102335.72;;;23.68;33.60
59240;BME280;45010;53.640;10.578;2023-01-28T10:09:13;102304.22;;;23.72;33.18
59240;BME280;45010;53.640;10.578;2023-01-28T10:19:06;102291.63;;;23.81;32.97
59240;BME280;45010;53.640;10.578;2023-01-28T10:22:20;102276.28;;;23.83;32.22
59240;BME280;45010;53.640;10.578;2023-01-28T10:25:29;102281.88;;;23.88;32.72
59240;BME280;45010;53.640;10.578;2023-01-28T10:28:30;102275.63;;;23.81;32.52
59240;BME280;45010;53.640;10.578;2023-01-28T10:31:35;102278.56;;;23.86;32.48
59240;BME280;45010;53.640;10.578;2023-01-28T10:34:38;102283.16;;;23.92;32.43
59240;BME280;45010;53.640;10.578;2023-01-28T10:37:38;102267.81;;;23.94;32.42
59240;BME280;45010;53.640;10.578;2023-01-28T10:40:43;102277.44;;;23.95;32.21
59240;BME280;45010;53.640;10.578;2023-01-28T10:43:47;102263.09;;;23.96;32.19
59240;BME280;45010;53.640;10.578;2023-01-28T10:46:49;102271.72;;;23.98;32.31
59240;BME280;45010;53.640;10.578;2023-01-28T10:49:52;102262.75;;;23.99;31.91
59240;BME280;45010;53.640;10.578;2023-01-28T10:53:00;102237.66;;;23.94;32.25
59240;BME280;45010;53.640;10.578;2023-01-28T10:56:01;102247.13;;;23.96;32.23
59240;BME280;45010;53.640;10.578;2023-01-28T10:59:04;102247.56;;;24.00;32.40
59240;BME280;45010;53.640;10.578;2023-01-28T11:05:24;102200.88;;;24.04;31.86
59240;BME280;45010;53.640;10.578;2023-01-28T11:08:28;102190.84;;;24.06;31.83
59240;BME280;45010;53.640;10.578;2023-01-28T11:11:28;102216.56;;;24.14;31.86
59240;BME280;45010;53.640;10.578;2023-01-28T11:14:29;102219.84;;;24.16;31.70
59240;BME280;45010;53.640;10.578;2023-01-28T11:17:35;102203.50;;;24.19;31.93
59240;BME280;45010;53.640;10.578;2023-01-28T11:20:40;102196.00;;;24.08;31.24
59240;BME280;45010;53.640;10.578;2023-01-28T11:23:53;102206.78;;;24.21;28.87
59240;BME280;45010;53.640;10.578;2023-01-28T11:26:56;102205.31;;;24.18;27.93
59240;BME280;45010;53.640;10.578;2023-01-28T11:29:59;102184.94;;;24.11;27.81
59240;BME280;45010;53.640;10.578;2023-01-28T11:33:18;102170.63;;;24.12;28.05
59240;BME280;45010;53.640;10.578;2023-01-28T11:36:26;102163.25;;;24.14;28.75
59240;BME280;45010;53.640;10.578;2023-01-28T11:39:27;102150.56;;;24.16;28.92
59240;BME280;45010;53.640;10.578;2023-01-28T11:42:29;102125.94;;;24.14;29.13
59240;BME280;45010;53.640;10.578;2023-01-28T11:51:50;102142.03;;;24.27;29.51
59240;BME280;45010;53.640;10.578;2023-01-28T11:55:46;102150.34;;;24.39;29.73
59240;BME280;45010;53.640;10.578;2023-01-28T11:59:10;102144.56;;;24.36;29.83
59240;BME280;45010;53.640;10.578;2023-01-28T12:05:54;102133.56;;;24.45;29.84
59240;BME280;45010;53.640;10.578;2023-01-28T12:12:25;102139.31;;;24.49;29.99
59240;BME280;45010;53.640;10.578;2023-01-28T12:26:05;102115.16;;;24.57;30.36
59240;BME280;45010;53.640;10.578;2023-01-28T12:29:34;102115.78;;;24.60;30.43
59240;BME280;45010;53.640;10.578;2023-01-28T12:33:13;102116.41;;;24.62;30.53
59240;BME280;45010;53.640;10.578;2023-01-28T12:36:28;102117.22;;;24.62;30.58
59240;BME280;45010;53.640;10.578;2023-01-28T12:43:01;102116.78;;;24.58;30.41
59240;BME280;45010;53.640;10.578;2023-01-28T12:46:10;102124.22;;;24.70;30.50
59240;BME280;45010;53.640;10.578;2023-01-28T12:49:45;102112.34;;;24.66;30.52
59240;BME280;45010;53.640;10.578;2023-01-28T12:53:00;102103.72;;;24.70;30.42
59240;BME280;45010;53.640;10.578;2023-01-28T12:56:11;102097.19;;;24.73;30.51
59240;BME280;45010;53.640;10.578;2023-01-28T12:59:24;102099.84;;;24.80;30.28
59240;BME280;45010;53.640;10.578;2023-01-28T13:02:33;102088.75;;;24.76;30.40
59240;BME280;45010;53.640;10.578;2023-01-28T13:05:37;102083.44;;;24.76;30.42
59240;BME280;45010;53.640;10.578;2023-01-28T13:08:38;102088.00;;;24.82;30.44
59240;BME280;45010;53.640;10.578;2023-01-28T13:11:39;102077.13;;;24.84;30.41
59240;BME280;45010;53.640;10.578;2023-01-28T13:14:40;102061.97;;;24.84;30.49
59240;BME280;45010;53.640;10.578;2023-01-28T13:17:53;102058.25;;;24.85;30.11
59240;BME280;45010;53.640;10.578;2023-01-28T13:20:53;102061.97;;;24.84;30.02
59240;BME280;45010;53.640;10.578;2023-01-28T13:24:04;102072.63;;;24.84;30.11
59240;BME280;45010;53.640;10.578;2023-01-28T13:27:21;102067.28;;;24.84;30.33
59240;BME280;45010;53.640;10.578;2023-01-28T13:30:25;102068.88;;;24.79;30.43
59240;BME280;45010;53.640;10.578;2023-01-28T13:33:29;102072.38;;;24.79;30.35
59240;BME280;45010;53.640;10.578;2023-01-28T13:36:38;102073.25;;;24.87;30.30
59240;BME280;45010;53.640;10.578;2023-01-28T13:39:54;102068.50;;;24.82;29.99
59240;BME280;45010;53.640;10.578;2023-01-28T13:43:33;102096.03;;;24.89;30.10
59240;BME280;45010;53.640;10.578;2023-01-28T13:46:37;102096.84;;;24.90;30.16
59240;BME280;45010;53.640;10.578;2023-01-28T13:49:41;102105.50;;;24.92;30.14
59240;BME280;45010;53.640;10.578;2023-01-28T13:52:54;102073.34;;;24.71;30.03
59240;BME280;45010;53.640;10.578;2023-01-28T13:55:57;102084.88;;;24.72;30.25
59240;BME280;45010;53.640;10.578;2023-01-28T14:19:04;102098.28;;;24.92;30.28
59240;BME280;45010;53.640;10.578;2023-01-28T14:22:16;102083.06;;;24.86;30.56
59240;BME280;45010;53.640;10.578;2023-01-28T14:25:26;102094.63;;;24.93;30.26
59240;BME280;45010;53.640;10.578;2023-01-28T14:31:36;102096.06;;;24.96;30.36
59240;BME280;45010;53.640;10.578;2023-01-28T14:34:37;102064.75;;;24.76;30.42
59240;BME280;45010;53.640;10.578;2023-01-28T14:37:37;102088.69;;;24.98;30.34
59240;BME280;45010;53.640;10.578;2023-01-28T14:40:38;102083.72;;;24.95;30.28
59240;BME280;45010;53.640;10.578;2023-01-28T14:43:39;102088.50;;;25.00;30.28
59240;BME280;45010;53.640;10.578;2023-01-28T14:46:46;102055.78;;;24.84;30.10
59240;BME280;45010;53.640;10.578;2023-01-28T14:56:50;102109.00;;;24.99;30.18
59240;BME280;45010;53.640;10.578;2023-01-28T14:59:50;102111.66;;;24.99;30.14
59240;BME280;45010;53.640;10.578;2023-01-28T15:02:51;102114.34;;;24.99;30.18
59240;BME280;45010;53.640;10.578;2023-01-28T15:06:15;102098.28;;;24.85;30.30
59240;BME280;45010;53.640;10.578;2023-01-28T15:09:16;102129.31;;;25.00;30.46
59240;BME280;45010;53.640;10.578;2023-01-28T15:12:16;102135.50;;;25.01;29.92
59240;BME280;45010;53.640;10.578;2023-01-28T15:15:38;102130.97;;;25.01;29.94
59240;BME280;45010;53.640;10.578;2023-01-28T15:18:41;102127.06;;;24.97;30.18
59240;BME280;45010;53.640;10.578;2023-01-28T15:21:44;102130.59;;;25.04;30.24
59240;BME280;45010;53.640;10.578;2023-01-28T15:24:44;102138.59;;;25.04;30.30
59240;BME280;45010;53.640;10.578;2023-01-28T15:27:45;102133.25;;;25.04;30.28
59240;BME280;45010;53.640;10.578;2023-01-28T15:30:45;102126.88;;;25.05;30.25
59240;BME280;45010;53.640;10.578;2023-01-28T15:33:55;102108.81;;;25.07;30.14
59240;BME280;45010;53.640;10.578;2023-01-28T15:36:59;102075.72;;;24.95;30.27
59240;BME280;45010;53.640;10.578;2023-01-28T15:40:04;102091.81;;;25.08;30.35
59240;BME280;45010;53.640;10.578;2023-01-28T15:43:05;102096.09;;;25.09;30.47
59240;BME280;45010;53.640;10.578;2023-01-28T15:46:10;102094.84;;;25.05;30.05
59240;BME280;45010;53.640;10.578;2023-01-28T15:49:13;102095.06;;;25.10;29.82
59240;BME280;45010;53.640;10.578;2023-01-28T15:52:14;102062.38;;;24.95;30.26
59240;BME280;45010;53.640;10.578;2023-01-28T15:55:28;102089.31;;;25.14;30.07
59240;BME280;45010;53.640;10.578;2023-01-28T15:58:30;102078.66;;;25.14;30.14
59240;BME280;45010;53.640;10.578;2023-01-28T16:01:33;102072.31;;;25.15;30.34
59240;BME280;45010;53.640;10.578;2023-01-28T16:04:33;102060.59;;;25.16;30.27
59240;BME280;45010;53.640;10.578;2023-01-28T16:07:43;102062.00;;;25.11;30.14
59240;BME280;45010;53.640;10.578;2023-01-28T16:10:51;102073.53;;;25.19;30.19
59240;BME280;45010;53.640;10.578;2023-01-28T16:13:53;102074.34;;;25.12;30.36
59240;BME280;45010;53.640;10.578;2023-01-28T16:16:55;102064.06;;;25.09;30.46
59240;BME280;45010;53.640;10.578;2023-01-28T16:20:06;102092.03;;;25.20;30.36
59240;BME280;45010;53.640;10.578;2023-01-28T16:23:20;102081.97;;;25.16;30.26
59240;BME280;45010;53.640;10.578;2023-01-28T16:26:23;102099.84;;;25.22;30.46
59240;BME280;45010;53.640;10.578;2023-01-28T16:29:26;102084.22;;;25.19;30.39
59240;BME280;45010;53.640;10.578;2023-01-28T16:32:34;102100.25;;;25.25;30.25
59240;BME280;45010;53.640;10.578;2023-01-28T16:35:34;102093.84;;;25.20;30.40
59240;BME280;45010;53.640;10.578;2023-01-28T16:38:35;102101.69;;;25.28;30.27
59240;BME280;45010;53.640;10.578;2023-01-28T16:41:41;102092.44;;;25.24;30.59
59240;BME280;45010;53.640;10.578;2023-01-28T16:44:42;102070.44;;;25.15;30.55
59240;BME280;45010;53.640;10.578;2023-01-28T16:47:42;102071.09;;;25.31;30.66
59240;BME280;45010;53.640;10.578;2023-01-28T16:50:43;102059.59;;;25.30;30.73
59240;BME280;45010;53.640;10.578;2023-01-28T16:53:47;102069.88;;;25.33;30.80
59240;BME280;45010;53.640;10.578;2023-01-28T16:56:48;102067.81;;;25.35;30.81
59240;BME280;45010;53.640;10.578;2023-01-28T16:59:49;102085.47;;;25.36;31.04
59240;BME280;45010;53.640;10.578;2023-01-28T17:02:50;102086.31;;;25.37;30.92
59240;BME280;45010;53.640;10.578;2023-01-28T17:05:51;102094.13;;;25.38;30.89
59240;BME280;45010;53.640;10.578;2023-01-28T17:08:51;102094.13;;;25.38;31.01
59240;BME280;45010;53.640;10.578;2023-01-28T17:11:52;102090.44;;;25.39;30.86